Time;durP1;ratioP1;P1;durP2;ratioP2;P2;SDS_P1;SDS_P2;PMS_P1;PMS_P2;Temp;Humidity;BMP_temperature;BMP_pressure;BME280_temperature;BME280_humidity;BME280_pressure;Samples;Min_cycle;Max_cycle;Signal;HPM_P1;HPM_P2
2023/06/02 00:01:02;;;;;;;0.73;0.20;;;14.60;99.90;;;;;;5115580;28;20468;-72
2023/06/02 00:03:33;;;;;;;0.13;0.13;;;14.80;99.90;;;;;;5115807;28;20054;-72
2023/06/02 00:06:01;;;;;;;0.40;0.40;;;14.70;99.90;;;;;;5113622;28;20069;-72
2023/06/02 00:08:27;;;;;;;0.10;0.10;;;14.60;99.90;;;;;;5114915;28;20047;-72
2023/06/02 00:10:53;;;;;;;0.10;0.10;;;14.50;99.90;;;;;;5115280;28;20042;-72
2023/06/02 00:13:19;;;;;;;0.13;0.13;;;14.60;99.90;;;;;;5115413;28;20484;-72
2023/06/02 00:15:45;;;;;;;1.65;0.77;;;14.70;99.90;;;;;;5115478;28;20082;-72
2023/06/02 00:18:11;;;;;;;0.20;0.20;;;14.50;99.90;;;;;;5115382;28;20068;-72
2023/06/02 00:20:38;;;;;;;0.10;0.10;;;14.60;99.90;;;;;;5097024;28;20031;-71
2023/06/02 00:23:03;;;;;;;0.10;0.10;;;14.50;99.90;;;;;;5114894;28;20035;-72
2023/06/02 00:25:30;;;;;;;0.28;0.28;;;14.40;99.90;;;;;;5114962;28;20024;-71
2023/06/02 00:27:56;;;;;;;0.10;0.10;;;14.30;99.90;;;;;;5115238;28;20114;-72
2023/06/02 00:30:22;;;;;;;1.38;0.60;;;14.20;99.90;;;;;;5115138;28;20111;-71
2023/06/02 00:32:48;;;;;;;0.35;0.35;;;14.10;99.90;;;;;;5080064;28;20023;-72
2023/06/02 00:35:14;;;;;;;0.20;0.20;;;14.00;99.90;;;;;;5114702;28;20082;-71
2023/06/02 00:37:40;;;;;;;0.10;0.10;;;14.00;99.90;;;;;;5095883;28;20106;-71
2023/06/02 00:40:07;;;;;;;0.30;0.30;;;14.10;99.90;;;;;;5114607;28;20454;-72
2023/06/02 00:42:33;;;;;;;0.50;0.50;;;14.30;99.90;;;;;;5096538;28;20280;-71
2023/06/02 00:44:58;;;;;;;0.10;0.10;;;14.20;99.90;;;;;;5114726;28;20070;-71
2023/06/02 00:47:24;;;;;;;3.20;0.85;;;14.20;99.90;;;;;;5096550;28;20023;-72
2023/06/02 00:49:50;;;;;;;0.98;0.35;;;14.10;99.90;;;;;;5096496;28;20523;-72
2023/06/02 00:52:18;;;;;;;1.48;1.38;;;14.00;99.90;;;;;;5095889;28;20035;-71
2023/06/02 00:54:44;;;;;;;0.10;0.10;;;14.00;99.90;;;;;;5114571;28;20026;-72
2023/06/02 00:57:10;;;;;;;3.50;1.17;;;14.20;99.90;;;;;;5096552;28;20028;-71
2023/06/02 00:59:37;;;;;;;5.15;1.10;;;14.10;99.90;;;;;;5114217;28;20085;-71
2023/06/02 01:02:03;;;;;;;0.17;0.17;;;13.80;99.90;;;;;;5096173;28;20069;-71
2023/06/02 01:04:31;;;;;;;0.40;0.40;;;14.00;99.90;;;;;;5079208;28;20073;-73
2023/06/02 01:07:03;;;;;;;0.15;0.15;;;14.00;99.90;;;;;;5114183;28;20015;-72
2023/06/02 01:09:30;;;;;;;1.27;1.27;;;14.00;99.90;;;;;;5114144;28;20028;-71
2023/06/02 01:11:56;;;;;;;0.20;0.20;;;14.00;99.90;;;;;;5096486;28;20079;-71
2023/06/02 01:14:25;;;;;;;0.20;0.20;;;13.90;99.90;;;;;;5095620;28;20039;-70
2023/06/02 01:16:51;;;;;;;0.30;0.30;;;13.70;99.90;;;;;;5114408;28;20019;-71
2023/06/02 01:19:21;;;;;;;4.03;1.05;;;13.50;99.90;;;;;;5114106;28;20059;-71
2023/06/02 01:21:57;;;;;;;0.93;0.82;;;13.40;99.90;;;;;;5113705;28;20054;-70
2023/06/02 01:24:35;;;;;;;0.25;0.25;;;13.60;99.90;;;;;;5096884;28;20041;-70
2023/06/02 01:27:14;;;;;;;0.20;0.20;;;13.60;99.90;;;;;;5096104;28;20039;-70
2023/06/02 01:29:41;;;;;;;0.10;0.10;;;13.80;99.90;;;;;;5095705;28;20020;-70
2023/06/02 01:32:30;;;;;;;0.45;0.45;;;13.80;99.90;;;;;;5095698;28;20042;-71
2023/06/02 01:35:03;;;;;;;0.20;0.20;;;13.70;99.90;;;;;;5095163;28;20487;-70
2023/06/02 01:37:32;;;;;;;0.20;0.20;;;13.70;99.90;;;;;;5095764;28;20088;-71
2023/06/02 01:40:01;;;;;;;0.52;0.40;;;13.80;99.90;;;;;;5095113;28;20027;-70
2023/06/02 01:42:28;;;;;;;0.10;0.10;;;13.80;99.90;;;;;;5095460;28;20039;-70
2023/06/02 01:44:55;;;;;;;0.85;0.85;;;13.70;99.90;;;;;;5113772;28;20028;-71
2023/06/02 01:47:21;;;;;;;0.30;0.30;;;13.70;99.90;;;;;;5095279;28;20036;-71
2023/06/02 01:49:47;;;;;;;0.20;0.20;;;13.80;99.90;;;;;;5095262;28;20532;-71
2023/06/02 01:52:12;;;;;;;0.17;0.17;;;14.00;99.90;;;;;;5095246;28;20049;-70
2023/06/02 01:54:38;;;;;;;0.28;0.28;;;13.90;99.90;;;;;;5078384;28;20031;-71
2023/06/02 01:57:06;;;;;;;1.38;0.95;;;13.90;99.90;;;;;;5094956;28;20024;-71
2023/06/02 01:59:32;;;;;;;0.10;0.10;;;13.60;99.90;;;;;;5095203;28;20035;-71
2023/06/02 02:01:58;;;;;;;0.10;0.10;;;13.60;99.90;;;;;;5095170;28;20024;-71
2023/06/02 02:04:24;;;;;;;0.20;0.20;;;13.70;99.90;;;;;;5113079;28;20531;-70
2023/06/02 02:06:49;;;;;;;0.10;0.10;;;13.50;99.90;;;;;;5113318;28;20038;-71
2023/06/02 02:09:15;;;;;;;0.47;0.47;;;13.60;99.90;;;;;;5113295;28;20488;-71
2023/06/02 02:11:41;;;;;;;0.10;0.10;;;13.70;99.90;;;;;;5114011;28;20111;-70
2023/06/02 02:14:07;;;;;;;0.10;0.10;;;13.80;99.90;;;;;;5113661;28;20460;-71
2023/06/02 02:16:33;;;;;;;7.32;0.45;;;13.90;99.90;;;;;;5094943;28;20031;-70
2023/06/02 02:18:59;;;;;;;0.47;0.47;;;13.50;99.90;;;;;;5113018;28;20031;-71
2023/06/02 02:21:25;;;;;;;0.28;0.28;;;13.60;99.90;;;;;;5112855;28;20479;-71
2023/06/02 02:23:53;;;;;;;2.55;0.65;;;13.60;99.90;;;;;;5113113;28;20391;-70
2023/06/02 02:26:19;;;;;;;0.55;0.55;;;13.60;99.90;;;;;;5078313;28;20058;-71
2023/06/02 02:28:48;;;;;;;0.20;0.20;;;13.60;99.90;;;;;;5095133;28;20387;-71
2023/06/02 02:31:14;;;;;;;0.30;0.30;;;13.60;99.90;;;;;;5078044;28;20032;-70
2023/06/02 02:33:40;;;;;;;0.30;0.30;;;13.80;99.90;;;;;;5094665;28;20349;-70
2023/06/02 02:36:08;;;;;;;0.10;0.10;;;13.80;99.90;;;;;;5094865;28;20032;-71
2023/06/02 02:38:35;;;;;;;0.45;0.45;;;13.80;99.90;;;;;;5094847;28;20506;-70
2023/06/02 02:41:01;;;;;;;0.13;0.13;;;13.80;99.90;;;;;;5094616;28;20028;-70
2023/06/02 02:43:26;;;;;;;0.17;0.17;;;13.80;99.90;;;;;;5094432;28;20031;-71
2023/06/02 02:45:53;;;;;;;0.10;0.10;;;13.80;99.90;;;;;;5077902;28;20024;-71
2023/06/02 02:48:18;;;;;;;0.30;0.30;;;14.10;99.90;;;;;;5094329;28;20353;-70
2023/06/02 02:50:44;;;;;;;1.10;1.10;;;14.10;99.90;;;;;;5094587;28;20568;-71
2023/06/02 02:53:11;;;;;;;0.73;0.55;;;14.00;99.90;;;;;;5094602;28;20464;-71
2023/06/02 02:55:39;;;;;;;0.80;0.65;;;14.00;99.90;;;;;;5112784;28;20102;-71
2023/06/02 02:58:08;;;;;;;1.10;0.82;;;13.90;99.90;;;;;;5094493;28;20077;-70
2023/06/02 03:00:33;;;;;;;0.20;0.20;;;13.90;99.90;;;;;;5097529;28;20048;-70
2023/06/02 03:03:01;;;;;;;0.65;0.65;;;14.00;99.90;;;;;;5098468;28;20027;-71
2023/06/02 03:05:27;;;;;;;0.10;0.10;;;14.10;99.90;;;;;;5098315;28;20031;-71
2023/06/02 03:07:54;;;;;;;0.10;0.10;;;14.10;99.90;;;;;;5098306;28;20024;-70
2023/06/02 03:10:20;;;;;;;0.10;0.10;;;13.80;99.90;;;;;;5098488;28;20467;-71
2023/06/02 03:12:48;;;;;;;0.15;0.15;;;13.80;99.90;;;;;;5098147;28;20425;-71
2023/06/02 03:15:14;;;;;;;0.20;0.20;;;13.90;99.90;;;;;;5081588;28;20073;-70
2023/06/02 03:17:41;;;;;;;0.22;0.22;;;14.00;99.90;;;;;;5098073;28;20483;-70
2023/06/02 03:20:09;;;;;;;0.20;0.20;;;14.10;99.90;;;;;;5098045;28;20115;-71
2023/06/02 03:22:36;;;;;;;0.40;0.40;;;14.00;99.90;;;;;;5098256;28;20020;-71
2023/06/02 03:25:05;;;;;;;0.17;0.17;;;13.80;99.90;;;;;;5098150;28;20507;-71
2023/06/02 03:27:32;;;;;;;5.97;1.70;;;13.70;99.90;;;;;;5098023;28;20066;-70
2023/06/02 03:29:58;;;;;;;2.00;1.10;;;13.40;99.90;;;;;;5098049;28;20056;-70
2023/06/02 03:32:29;;;;;;;;;;;13.50;99.90;;;;;;5098018;28;20138;-70
2023/06/02 03:34:55;;;;;;;0.10;0.10;;;13.50;99.90;;;;;;5116081;28;19939;-71
2023/06/02 03:37:21;;;;;;;0.22;0.22;;;13.50;99.90;;;;;;5098056;28;20043;-70
2023/06/02 03:39:48;;;;;;;0.13;0.13;;;13.60;99.90;;;;;;5080912;28;20429;-71
2023/06/02 03:42:14;;;;;;;0.82;0.65;;;13.60;99.90;;;;;;5097738;28;20127;-71
2023/06/02 03:44:40;;;;;;;0.32;0.32;;;13.50;99.90;;;;;;5097626;28;20059;-71
2023/06/02 03:47:06;;;;;;;0.20;0.20;;;13.20;99.90;;;;;;5097445;28;20012;-70
2023/06/02 03:49:32;;;;;;;0.10;0.10;;;13.30;99.90;;;;;;5097470;28;20042;-70
2023/06/02 03:52:00;;;;;;;0.52;0.52;;;13.40;99.90;;;;;;5097691;28;20106;-71
2023/06/02 03:54:27;;;;;;;0.10;0.10;;;13.50;99.90;;;;;;5097506;28;20092;-70
2023/06/02 03:56:53;;;;;;;0.20;0.20;;;13.60;99.90;;;;;;5097440;28;20812;-71
2023/06/02 03:59:18;;;;;;;0.38;0.38;;;13.80;99.90;;;;;;5096892;28;20119;-70
2023/06/02 04:01:44;;;;;;;0.10;0.10;;;13.60;99.90;;;;;;5114845;28;20027;-70
2023/06/02 04:04:11;;;;;;;7.50;0.95;;;13.70;99.90;;;;;;5079672;28;20089;-70
2023/06/02 04:06:40;;;;;;;0.52;0.50;;;13.60;99.90;;;;;;5096711;28;20024;-71
2023/06/02 04:09:07;;;;;;;0.20;0.20;;;13.40;99.90;;;;;;5096600;28;20016;-70
2023/06/02 04:11:33;;;;;;;1.02;0.65;;;13.40;99.90;;;;;;5096031;28;20407;-70
2023/06/02 04:13:59;;;;;;;0.20;0.20;;;13.50;99.90;;;;;;5115261;28;20038;-71
2023/06/02 04:16:26;;;;;;;0.50;0.50;;;13.50;99.90;;;;;;5080015;28;20024;-70
2023/06/02 04:18:53;;;;;;;0.30;0.30;;;13.40;99.90;;;;;;5097124;28;20023;-71
2023/06/02 04:21:19;;;;;;;0.30;0.30;;;13.40;99.90;;;;;;5096701;28;20043;-70
2023/06/02 04:23:46;;;;;;;0.10;0.10;;;13.30;99.90;;;;;;5097814;28;20051;-70
2023/06/02 04:26:12;;;;;;;0.20;0.20;;;13.40;99.90;;;;;;5097274;28;20030;-70
2023/06/02 04:28:39;;;;;;;0.10;0.10;;;13.40;99.90;;;;;;5096850;28;20016;-71
2023/06/02 04:31:09;;;;;;;0.25;0.25;;;13.50;99.90;;;;;;5096701;28;20479;-70
2023/06/02 04:33:37;;;;;;;0.30;0.30;;;13.40;99.90;;;;;;5114938;28;20016;-70
2023/06/02 04:36:07;;;;;;;0.30;0.30;;;13.30;99.90;;;;;;5096824;28;20027;-70
2023/06/02 04:38:34;;;;;;;0.10;0.10;;;13.30;99.90;;;;;;5097162;28;20118;-70
2023/06/02 04:41:01;;;;;;;0.30;0.30;;;13.30;99.90;;;;;;5096578;28;20077;-70
2023/06/02 04:43:28;;;;;;;0.10;0.10;;;13.30;99.90;;;;;;5079663;28;20031;-70
2023/06/02 04:45:56;;;;;;;0.10;0.10;;;13.60;99.90;;;;;;5096550;28;20031;-70
2023/06/02 04:48:24;;;;;;;0.20;0.20;;;13.60;99.90;;;;;;5080142;28;20050;-70
2023/06/02 04:50:50;;;;;;;0.10;0.10;;;13.70;99.90;;;;;;5114689;28;20364;-70
2023/06/02 04:53:16;;;;;;;0.52;0.52;;;13.60;99.90;;;;;;5096664;28;20046;-70
2023/06/02 04:55:45;;;;;;;0.52;0.22;;;13.40;99.90;;;;;;5096209;28;20547;-70
2023/06/02 04:58:12;;;;;;;0.10;0.10;;;13.40;99.90;;;;;;5096025;28;20118;-70
2023/06/02 05:00:38;;;;;;;0.35;0.35;;;13.30;99.90;;;;;;5096095;28;20032;-70
2023/06/02 05:03:05;;;;;;;0.10;0.10;;;13.30;99.90;;;;;;5096388;28;20092;-71
2023/06/02 05:05:32;;;;;;;2.60;1.38;;;13.30;99.90;;;;;;5079154;28;20422;-70
2023/06/02 05:07:58;;;;;;;0.17;0.17;;;13.30;99.90;;;;;;5096144;28;20016;-72
2023/06/02 05:10:25;;;;;;;0.10;0.10;;;13.40;99.90;;;;;;5095811;28;20036;-72
2023/06/02 05:12:53;;;;;;;0.40;0.40;;;13.50;99.90;;;;;;5095431;28;20026;-72
2023/06/02 05:15:19;;;;;;;1.48;1.38;;;13.20;99.90;;;;;;5079068;28;20051;-72
2023/06/02 05:17:46;;;;;;;0.10;0.10;;;13.20;99.90;;;;;;5096137;28;20034;-72
2023/06/02 05:20:13;;;;;;;0.77;0.38;;;13.30;99.90;;;;;;5095702;28;20518;-71
2023/06/02 05:22:39;;;;;;;0.10;0.10;;;13.30;99.90;;;;;;5095515;28;20031;-71
2023/06/02 05:25:07;;;;;;;2.80;0.63;;;13.40;99.90;;;;;;5095672;28;20023;-71
2023/06/02 05:27:33;;;;;;;0.20;0.20;;;13.30;99.90;;;;;;5113942;28;20043;-70
2023/06/02 05:29:59;;;;;;;0.10;0.10;;;13.30;99.90;;;;;;5078778;28;20034;-70
2023/06/02 05:32:25;;;;;;;0.10;0.10;;;13.30;99.90;;;;;;5114006;28;20515;-70
2023/06/02 05:34:52;;;;;;;0.75;0.75;;;13.30;99.90;;;;;;5095336;28;20083;-71
2023/06/02 05:37:18;;;;;;;0.22;0.22;;;13.40;99.90;;;;;;5095575;28;20472;-71
2023/06/02 05:39:45;;;;;;;0.50;0.50;;;13.50;99.90;;;;;;5086453;28;20034;-70
2023/06/02 05:42:11;;;;;;;2.25;0.55;;;13.50;99.90;;;;;;5094023;28;20070;-71
2023/06/02 05:44:37;;;;;;;0.47;0.47;;;13.50;99.90;;;;;;5085003;28;20512;-70
2023/06/02 05:47:04;;;;;;;0.10;0.10;;;13.40;99.90;;;;;;5081899;28;20492;-70
2023/06/02 05:49:31;;;;;;;0.20;0.20;;;13.30;99.90;;;;;;5112788;28;20036;-70
2023/06/02 05:51:57;;;;;;;0.13;0.13;;;13.50;99.90;;;;;;5097380;28;20032;-70
2023/06/02 05:54:24;;;;;;;0.10;0.10;;;13.50;99.90;;;;;;5097183;28;20020;-71
2023/06/02 05:56:50;;;;;;;0.10;0.10;;;13.90;99.90;;;;;;5094457;28;20024;-71
2023/06/02 05:59:17;;;;;;;0.15;0.15;;;13.90;99.90;;;;;;5107186;28;20028;-71
2023/06/02 06:01:43;;;;;;;0.10;0.10;;;14.10;99.90;;;;;;5088331;28;20515;-71
2023/06/02 06:04:09;;;;;;;0.10;0.10;;;14.00;99.90;;;;;;5098284;28;20054;-71
2023/06/02 06:06:36;;;;;;;0.10;0.10;;;14.00;99.90;;;;;;5110725;27;20031;-70
2023/06/02 06:09:05;;;;;;;0.28;0.28;;;14.00;99.90;;;;;;5108599;27;20019;-71
2023/06/02 06:11:31;;;;;;;0.90;0.90;;;14.10;99.90;;;;;;5103565;28;20027;-70
2023/06/02 06:13:57;;;;;;;0.10;0.10;;;14.20;99.90;;;;;;5103686;28;20020;-70
2023/06/02 06:16:23;;;;;;;0.10;0.10;;;14.20;99.90;;;;;;5101006;28;20433;-70
2023/06/02 06:18:49;;;;;;;0.10;0.10;;;14.10;99.90;;;;;;5114762;27;20061;-70
2023/06/02 06:21:15;;;;;;;0.30;0.30;;;14.20;99.90;;;;;;5113954;28;20043;-70
2023/06/02 06:23:41;;;;;;;0.10;0.10;;;14.10;99.90;;;;;;5126980;27;20024;-70
2023/06/02 06:26:07;;;;;;;0.30;0.30;;;14.20;99.90;;;;;;5103413;28;20392;-70
2023/06/02 06:28:33;;;;;;;0.10;0.10;;;13.90;99.90;;;;;;5101766;28;20023;-69
2023/06/02 06:31:00;;;;;;;0.10;0.10;;;13.70;99.90;;;;;;5101538;28;20069;-70
2023/06/02 06:33:26;;;;;;;0.10;0.10;;;13.70;99.90;;;;;;5100617;28;20028;-70
2023/06/02 06:35:52;;;;;;;0.20;0.20;;;14.00;99.90;;;;;;5100014;28;20437;-70
2023/06/02 06:38:18;;;;;;;0.10;0.10;;;14.00;99.90;;;;;;5099054;27;20391;-70
2023/06/02 06:40:44;;;;;;;0.10;0.10;;;14.10;99.90;;;;;;5103558;28;20492;-70
2023/06/02 06:43:15;;;;;;;0.20;0.20;;;14.10;99.90;;;;;;5089144;28;20031;-70
2023/06/02 06:45:44;;;;;;;0.10;0.10;;;13.90;99.90;;;;;;5086379;27;20460;-71
2023/06/02 06:48:10;;;;;;;0.90;0.80;;;14.10;99.90;;;;;;5113291;28;20027;-70
2023/06/02 06:50:36;;;;;;;0.40;0.40;;;14.10;99.90;;;;;;5122680;27;20111;-70
2023/06/02 06:53:03;;;;;;;0.85;0.73;;;14.10;99.90;;;;;;5118491;27;20057;-70
2023/06/02 06:55:29;;;;;;;0.10;0.10;;;14.20;99.90;;;;;;5122399;27;20027;-70
2023/06/02 06:57:56;;;;;;;0.47;0.47;;;14.10;99.90;;;;;;5120753;27;20490;-70
2023/06/02 07:00:22;;;;;;;0.25;0.25;;;13.90;99.90;;;;;;5119040;27;20169;-70
2023/06/02 07:02:48;;;;;;;0.13;0.13;;;14.00;99.90;;;;;;5122783;27;20425;-70
2023/06/02 07:05:15;;;;;;;0.10;0.10;;;14.10;99.90;;;;;;5123003;27;20027;-70
2023/06/02 07:07:41;;;;;;;0.10;0.10;;;14.10;99.90;;;;;;5108154;27;20091;-70
2023/06/02 07:10:07;;;;;;;0.43;0.30;;;14.30;99.90;;;;;;5104395;28;20110;-70
2023/06/02 07:12:33;;;;;;;1.30;1.20;;;14.30;99.90;;;;;;5115804;27;20040;-70
2023/06/02 07:14:58;;;;;;;0.10;0.10;;;14.20;99.90;;;;;;5106514;27;20019;-70
2023/06/02 07:17:24;;;;;;;0.10;0.10;;;14.20;99.90;;;;;;5110877;27;20099;-70
2023/06/02 07:19:50;;;;;;;0.10;0.10;;;14.40;99.90;;;;;;5115424;27;20031;-70
2023/06/02 07:22:16;;;;;;;8.77;0.28;;;14.40;99.90;;;;;;5113714;27;20024;-71
2023/06/02 07:24:42;;;;;;;0.80;0.80;;;14.10;99.90;;;;;;5112845;27;20043;-70
2023/06/02 07:27:08;;;;;;;1.45;0.30;;;14.10;99.90;;;;;;5114272;28;20276;-70
2023/06/02 07:29:34;;;;;;;0.10;0.10;;;14.20;99.90;;;;;;5107459;27;20554;-70
2023/06/02 07:31:59;;;;;;;0.15;0.15;;;14.20;99.90;;;;;;5117203;27;20102;-70
2023/06/02 07:34:25;;;;;;;0.10;0.10;;;14.30;99.90;;;;;;5106396;27;20046;-70
2023/06/02 07:36:52;;;;;;;0.22;0.22;;;14.30;99.90;;;;;;5120994;27;20020;-69
2023/06/02 07:39:18;;;;;;;0.45;0.45;;;14.40;99.90;;;;;;5117648;27;20481;-69
2023/06/02 07:41:44;;;;;;;0.10;0.10;;;14.50;99.90;;;;;;5112346;27;20034;-70
2023/06/02 07:44:10;;;;;;;0.32;0.32;;;14.80;99.90;;;;;;5113836;28;20074;-70
2023/06/02 07:46:36;;;;;;;0.10;0.10;;;14.40;99.90;;;;;;5112956;27;20032;-70
2023/06/02 07:49:02;;;;;;;0.10;0.10;;;14.40;99.90;;;;;;5110355;27;20026;-70
2023/06/02 07:51:28;;;;;;;0.17;0.17;;;14.70;99.90;;;;;;5096759;27;20061;-70
2023/06/02 07:53:54;;;;;;;0.08;0.08;;;14.80;99.90;;;;;;5117038;27;20020;-71
2023/06/02 07:56:20;;;;;;;1.13;1.05;;;14.80;99.90;;;;;;5096550;27;20031;-69
2023/06/02 07:58:46;;;;;;;0.13;0.13;;;15.00;99.90;;;;;;5119174;27;20016;-70
2023/06/02 08:01:12;;;;;;;0.10;0.10;;;15.30;99.90;;;;;;5115012;27;20043;-69
2023/06/02 08:03:39;;;;;;;0.10;0.10;;;15.00;99.90;;;;;;5110362;28;20017;-69
2023/06/02 08:06:06;;;;;;;4.60;0.95;;;15.00;99.90;;;;;;5117955;27;20065;-69
2023/06/02 08:08:31;;;;;;;0.20;0.10;;;14.80;99.90;;;;;;5118319;27;20011;-70
2023/06/02 08:10:57;;;;;;;0.20;0.20;;;14.90;99.90;;;;;;5129570;27;20023;-72
2023/06/02 08:13:24;;;;;;;0.10;0.10;;;15.10;99.90;;;;;;5096132;27;20118;-72
2023/06/02 08:15:51;;;;;;;0.10;0.10;;;15.20;99.90;;;;;;5130129;27;20027;-72
2023/06/02 08:18:17;;;;;;;1.25;0.45;;;15.30;99.90;;;;;;5118733;27;20028;-72
2023/06/02 08:20:45;;;;;;;0.10;0.10;;;15.40;99.90;;;;;;5108164;27;20091;-72
2023/06/02 08:23:11;;;;;;;0.10;0.10;;;15.50;99.90;;;;;;5110053;28;20035;-73
2023/06/02 08:25:38;;;;;;;0.32;0.30;;;15.40;99.90;;;;;;5100607;28;20028;-72
2023/06/02 08:28:07;;;;;;;0.10;0.10;;;15.00;99.90;;;;;;5117177;27;20439;-69
2023/06/02 08:30:36;;;;;;;0.40;0.35;;;15.10;99.90;;;;;;5111118;27;20039;-69
2023/06/02 08:33:05;;;;;;;0.90;0.90;;;15.10;99.90;;;;;;5116996;27;20523;-69
2023/06/02 08:35:32;;;;;;;0.10;0.10;;;15.10;99.90;;;;;;5108802;27;20041;-68
2023/06/02 08:38:02;;;;;;;0.10;0.10;;;15.30;99.90;;;;;;5118552;27;20025;-68
2023/06/02 08:40:38;;;;;;;0.10;0.10;;;15.60;99.90;;;;;;5116132;27;20039;-67
2023/06/02 08:43:06;;;;;;;1.33;0.73;;;15.40;99.90;;;;;;5116711;27;20035;-69
2023/06/02 08:45:32;;;;;;;20.15;0.32;;;15.50;99.90;;;;;;5112952;27;20035;-69
2023/06/02 08:47:58;;;;;;;0.10;0.10;;;15.30;99.90;;;;;;5113050;28;20030;-70
2023/06/02 08:50:31;;;;;;;0.20;0.20;;;15.40;99.90;;;;;;5088212;28;20024;-69
2023/06/02 08:53:04;;;;;;;0.10;0.10;;;15.40;99.90;;;;;;5110331;28;20149;-68
2023/06/02 08:55:32;;;;;;;0.10;0.10;;;15.30;99.90;;;;;;5111044;28;20055;-69
2023/06/02 08:57:58;;;;;;;17.77;0.40;;;15.20;99.90;;;;;;5108532;28;20083;-71
2023/06/02 09:00:24;;;;;;;0.35;0.35;;;15.50;99.90;;;;;;5113625;28;20039;-75
2023/06/02 09:02:51;;;;;;;3.75;0.75;;;16.30;99.90;;;;;;5081983;28;20063;-74
2023/06/02 09:05:16;;;;;;;0.10;0.10;;;16.80;99.90;;;;;;5105293;28;20491;-70
2023/06/02 09:07:46;;;;;;;0.10;0.10;;;17.20;99.90;;;;;;5109390;28;20043;-68
2023/06/02 09:10:29;;;;;;;0.20;0.20;;;16.90;98.90;;;;;;5109373;28;20070;-70
2023/06/02 09:12:55;;;;;;;0.10;0.10;;;16.80;98.10;;;;;;5109256;28;20032;-70
2023/06/02 09:15:25;;;;;;;0.20;0.20;;;16.50;98.70;;;;;;5096520;28;20115;-69
2023/06/02 09:18:08;;;;;;;0.63;0.52;;;16.20;99.40;;;;;;5109037;27;20027;-68
2023/06/02 09:20:38;;;;;;;0.10;0.10;;;16.10;99.10;;;;;;5108417;28;20043;-69
2023/06/02 09:23:04;;;;;;;0.68;0.65;;;16.30;99.20;;;;;;5108061;28;20055;-69
2023/06/02 09:25:30;;;;;;;0.10;0.10;;;16.40;98.60;;;;;;5112307;28;20031;-72
2023/06/02 09:27:58;;;;;;;2.35;1.30;;;16.40;98.20;;;;;;5112860;28;20043;-70
2023/06/02 09:30:25;;;;;;;0.30;0.30;;;16.70;97.80;;;;;;5098824;28;20068;-70
2023/06/02 09:32:55;;;;;;;4.68;0.85;;;17.00;97.60;;;;;;5113009;28;20030;-70
2023/06/02 09:35:40;;;;;;;0.20;0.20;;;17.00;97.50;;;;;;5111457;28;20038;-69
2023/06/02 09:38:12;;;;;;;0.10;0.10;;;16.90;97.90;;;;;;5107164;27;20028;-70
2023/06/02 09:40:40;;;;;;;0.45;0.35;;;16.90;98.10;;;;;;5115035;27;20075;-70
2023/06/02 09:43:10;;;;;;;0.10;0.10;;;17.00;97.50;;;;;;5124035;27;20038;-71
2023/06/02 09:45:48;;;;;;;0.32;0.25;;;17.10;97.70;;;;;;5106690;27;20030;-71
2023/06/02 09:48:18;;;;;;;0.32;0.32;;;17.20;98.00;;;;;;5107503;27;20039;-71
2023/06/02 09:50:44;;;;;;;0.10;0.10;;;17.00;97.80;;;;;;5120546;27;20035;-71
2023/06/02 09:53:13;;;;;;;0.10;0.10;;;16.80;97.40;;;;;;5121192;27;20027;-72
2023/06/02 09:55:39;;;;;;;9.70;3.05;;;16.90;98.20;;;;;;5108984;27;20420;-72
2023/06/02 09:58:07;;;;;;;0.15;0.15;;;17.00;97.90;;;;;;5127101;27;20110;-71
2023/06/02 10:00:37;;;;;;;0.70;0.38;;;16.90;97.80;;;;;;5097896;27;20164;-72
2023/06/02 10:03:04;;;;;;;0.52;0.52;;;16.40;97.80;;;;;;5119974;27;20023;-71
2023/06/02 10:05:31;;;;;;;0.00;0.00;;;16.50;98.30;;;;;;5122813;27;20037;-71
2023/06/02 10:08:35;;;;;;;0.10;0.10;;;17.00;97.70;;;;;;5116305;27;20012;-71
2023/06/02 10:11:03;;;;;;;2.72;1.13;;;17.40;97.30;;;;;;5119438;27;20132;-71
2023/06/02 10:14:14;;;;;;;1.65;0.77;;;17.20;97.90;;;;;;5120366;27;20038;-72
2023/06/02 10:16:59;;;;;;;1.02;1.02;;;17.30;97.00;;;;;;5119801;27;20040;-72
2023/06/02 10:19:57;;;;;;;1.00;0.90;;;17.70;97.10;;;;;;5124270;27;20031;-72
2023/06/02 10:22:45;;;;;;;0.40;0.40;;;18.10;96.50;;;;;;5114400;28;20240;-72
2023/06/02 10:25:14;;;;;;;0.40;0.40;;;18.20;95.90;;;;;;5094526;28;20376;-73
2023/06/02 10:27:44;;;;;;;0.32;0.22;;;18.40;95.60;;;;;;5079410;28;20055;-72
2023/06/02 10:30:10;;;;;;;1.55;1.08;;;18.50;95.40;;;;;;5108012;28;20024;-72
2023/06/02 10:32:48;;;;;;;0.10;0.10;;;18.80;95.20;;;;;;5128156;28;20031;-72
2023/06/02 10:35:16;;;;;;;1.85;0.57;;;19.50;94.50;;;;;;5119633;28;20110;-72
2023/06/02 10:37:41;;;;;;;0.40;0.40;;;19.60;94.50;;;;;;5130242;28;20019;-73
2023/06/02 10:40:10;;;;;;;0.75;0.55;;;19.60;94.40;;;;;;5115939;28;20115;-73
2023/06/02 10:42:37;;;;;;;0.20;0.20;;;20.00;93.90;;;;;;5118985;28;20024;-73
2023/06/02 10:45:18;;;;;;;0.20;0.20;;;20.20;93.50;;;;;;5113847;28;20023;-72
2023/06/02 10:47:45;;;;;;;0.20;0.20;;;20.10;93.20;;;;;;5123254;28;20368;-72
2023/06/02 10:50:14;;;;;;;0.00;0.00;;;20.70;93.20;;;;;;5113962;28;20023;-72
2023/06/02 10:53:03;;;;;;;0.08;0.08;;;21.40;92.10;;;;;;5098652;28;20028;-72
2023/06/02 10:55:31;;;;;;;0.00;0.00;;;21.70;91.10;;;;;;5112096;28;20503;-72
2023/06/02 10:58:03;;;;;;;3.63;0.10;;;21.50;91.20;;;;;;5111620;28;20016;-72
2023/06/02 11:00:32;;;;;;;0.20;0.13;;;21.10;91.40;;;;;;5111098;28;20046;-72
2023/06/02 11:03:11;;;;;;;3.95;0.40;;;21.50;91.90;;;;;;5095854;28;20036;-72
2023/06/02 11:05:37;;;;;;;0.22;0.22;;;21.40;91.60;;;;;;5095821;28;20036;-72
2023/06/02 11:08:12;;;;;;;4.38;0.85;;;21.90;91.00;;;;;;5111865;28;20043;-72
2023/06/02 11:10:41;;;;;;;0.10;0.10;;;21.40;91.60;;;;;;5113324;28;20031;-74
2023/06/02 11:13:08;;;;;;;4.97;1.45;;;21.30;91.80;;;;;;5088867;28;20032;-71
2023/06/02 11:15:34;;;;;;;0.30;0.30;;;21.50;91.70;;;;;;5111894;28;20056;-71
2023/06/02 11:18:03;;;;;;;0.60;0.38;;;21.70;91.00;;;;;;5092370;28;20391;-71
2023/06/02 11:20:35;;;;;;;0.10;0.10;;;21.30;90.50;;;;;;5101854;28;20365;-71
2023/06/02 11:23:05;;;;;;;0.30;0.20;;;21.00;91.60;;;;;;5116226;28;20422;-71
2023/06/02 11:25:31;;;;;;;0.00;0.00;;;21.30;90.70;;;;;;5116234;28;20030;-71
2023/06/02 11:27:57;;;;;;;0.10;0.10;;;21.50;90.40;;;;;;5116386;28;20027;-71
2023/06/02 11:30:25;;;;;;;3.35;1.55;;;21.50;90.50;;;;;;5115877;28;20011;-71
2023/06/02 11:32:51;;;;;;;1.45;1.35;;;21.40;91.00;;;;;;5097936;28;20039;-71
2023/06/02 11:35:25;;;;;;;0.80;0.80;;;21.60;90.70;;;;;;5116296;28;20035;-71
2023/06/02 11:38:07;;;;;;;0.65;0.65;;;21.60;90.30;;;;;;5135824;27;20058;-71
2023/06/02 11:40:35;;;;;;;3.78;0.22;;;21.30;89.80;;;;;;5136514;27;20044;-71
2023/06/02 11:43:02;;;;;;;0.85;0.85;;;21.40;90.30;;;;;;5136656;27;20027;-71
2023/06/02 11:45:29;;;;;;;0.15;0.15;;;21.50;90.40;;;;;;5136264;27;20475;-71
2023/06/02 11:47:56;;;;;;;3.72;1.38;;;21.50;90.80;;;;;;5101123;27;20413;-71
2023/06/02 11:50:22;;;;;;;0.00;0.00;;;21.60;90.00;;;;;;5136519;27;20072;-71
2023/06/02 11:52:48;;;;;;;0.52;0.40;;;22.10;90.20;;;;;;5136348;27;20026;-71
2023/06/02 11:55:15;;;;;;;1.15;0.93;;;22.00;90.20;;;;;;5118349;27;20023;-71
2023/06/02 11:57:43;;;;;;;0.85;0.85;;;22.40;90.10;;;;;;5136083;27;20121;-71
2023/06/02 12:00:15;;;;;;;4.90;1.08;;;22.40;90.20;;;;;;5117689;27;20035;-71
2023/06/02 12:02:51;;;;;;;0.25;0.25;;;21.90;90.00;;;;;;5136422;27;20047;-71
2023/06/02 12:05:36;;;;;;;0.05;0.05;;;21.80;90.30;;;;;;5136127;27;20412;-71
2023/06/02 12:08:20;;;;;;;0.20;0.20;;;22.70;89.90;;;;;;5136155;27;20031;-71
2023/06/02 12:10:46;;;;;;;0.30;0.30;;;22.90;88.30;;;;;;5128251;27;20020;-71
2023/06/02 12:13:29;;;;;;;0.20;0.20;;;22.80;87.80;;;;;;5131887;27;20034;-71
2023/06/02 12:15:57;;;;;;;3.92;0.98;;;23.00;87.80;;;;;;5117573;27;20020;-71
2023/06/02 12:18:31;;;;;;;0.10;0.10;;;22.90;88.40;;;;;;5136068;27;20118;-71
2023/06/02 12:20:57;;;;;;;0.85;0.77;;;22.70;89.30;;;;;;5136080;27;20035;-71
2023/06/02 12:23:23;;;;;;;0.47;0.38;;;23.10;88.20;;;;;;5132259;27;20027;-71
2023/06/02 12:25:56;;;;;;;1.00;0.43;;;23.20;88.60;;;;;;5135687;27;20023;-71
2023/06/02 12:28:22;;;;;;;5.65;1.10;;;23.20;87.50;;;;;;5135439;27;20510;-71
2023/06/02 12:30:49;;;;;;;0.30;0.30;;;23.30;86.90;;;;;;5135658;27;20448;-71
2023/06/02 12:33:15;;;;;;;2.42;0.80;;;23.70;87.10;;;;;;5134725;27;20028;-71
2023/06/02 12:35:41;;;;;;;0.28;0.28;;;23.80;85.80;;;;;;5120762;27;20106;-71
2023/06/02 12:38:08;;;;;;;1.85;0.73;;;23.80;85.70;;;;;;5135513;27;20032;-71
2023/06/02 12:40:36;;;;;;;0.15;0.15;;;23.40;86.50;;;;;;5116448;27;20467;-71
2023/06/02 12:43:03;;;;;;;3.40;0.47;;;23.50;86.50;;;;;;5135242;27;20035;-72
2023/06/02 12:45:29;;;;;;;1.83;1.33;;;24.00;86.60;;;;;;5116970;27;20042;-71
2023/06/02 12:47:55;;;;;;;0.75;0.45;;;24.20;84.70;;;;;;5135437;27;20027;-72
2023/06/02 12:50:24;;;;;;;0.17;0.17;;;24.10;86.40;;;;;;5135257;27;20027;-71
2023/06/02 12:52:51;;;;;;;1.60;1.50;;;24.20;84.10;;;;;;5135173;27;20031;-71